Airfield :
LOGIN :

Register | Disclaimer

   EN    FR    IT 

 










Legend :    VFR   Marginal VFR   IFR   Intensive IFR   Very Intensive IFR
Visi :
Ceiling :
>= 8 km
>= 3000ft
5 to 8 km
1000 to 3000 ft
1500m to 5 km
500 to 1000 ft
800 to 1500m
200 to 500 ft
< 800m
< 200 ft
Symbols :   Thunderstorms  Fog  Heavy snow  Heavy precipitations  Wind > 20 kt
SIGMETs :     Misc.  Thunderstorms  Icing  Turbulence  Mountain Waves  Volcanic Ashes






- Airport Elevation : 220 ft
- IATA code : CWL


EGFF - Cardiff Rhoose

CURRENT METAR :
  • 250350Z AUTO 30007KT 9999 SCT019 BKN038 14/14 Q1018

EXPIRED METARs :
  • 250320Z AUTO 29009KT 9999 SCT005 BKN011 BKN015 15/15 Q1018
  • 250250Z AUTO 29009KT 9999 BKN003 OVC016 15/15 Q1018
  • 250220Z AUTO 28009KT 9999 -RA OVC004 15/15 Q1018
  • 250150Z AUTO 28011KT 9000 BKN002 OVC006 15/15 Q1018
  • 250120Z AUTO 28009KT 9999 -RA BKN003 OVC006 15/15 Q1019 RERA

TAF AMD TAF EGFF
Valid from the 25 at 04:00 until the 26 at 00:00 UTC


250401Z 2504/2524 28012KT 9999 BKN008
BECMG 2504/2507 FEW010 SCT030
PROB30
TEMPO 2507/2510 BKN010
PROB40
TEMPO 2512/2524 6000 SHRA BKN010
ATIS : +44 1446 729 319



MET'MAP, your aeronautical weather chart ! - Copyright ORBIFLY December 2007 - Disclaimer

ORBIFLY MET'MAP TEAM :

Programming & Development : Alexandra Zaïnal
Concept & original design : Baudouin d'Aumeries
Assistance for programming : Marc-Olivier Méhu
Technical & hardware support : Manuel Goepfert

Contact : metmap@orbifly.com




SOURCES & CREDITS :

   NOAA